createdAt,value
2022-11-24T00:01:28.220Z,17.65
2022-11-24T00:03:57.722Z,26.70
2022-11-24T00:06:26.871Z,23.10
2022-11-24T00:08:54.737Z,23.02
2022-11-24T00:11:23.980Z,21.50
2022-11-24T00:13:51.482Z,25.08
2022-11-24T00:16:22.464Z,23.80
2022-11-24T00:18:51.787Z,26.63
2022-11-24T00:21:19.506Z,21.35
2022-11-24T00:23:47.542Z,26.67
2022-11-24T00:26:34.593Z,19.38
2022-11-24T00:29:05.382Z,22.42
2022-11-24T00:31:38.084Z,20.20
2022-11-24T00:34:10.743Z,20.63
2022-11-24T00:36:39.322Z,22.70
2022-11-24T00:39:10.074Z,20.65
2022-11-24T00:41:37.025Z,20.23
2022-11-24T00:44:04.011Z,25.80
2022-11-24T00:46:32.171Z,18.73
2022-11-24T00:49:00.413Z,18.00
2022-11-24T00:51:30.110Z,17.98
2022-11-24T00:53:58.515Z,19.52
2022-11-24T00:56:26.943Z,18.65
2022-11-24T00:58:53.781Z,21.10
2022-11-24T01:01:26.117Z,19.00
2022-11-24T01:03:55.280Z,18.75
2022-11-24T01:06:25.542Z,15.77
2022-11-24T01:08:53.112Z,19.30
2022-11-24T01:11:30.046Z,19.60
2022-11-24T01:13:59.109Z,27.25
2022-11-24T01:16:34.255Z,17.38
2022-11-24T01:19:01.650Z,19.15
2022-11-24T01:21:28.438Z,18.80
2022-11-24T01:23:55.289Z,24.80
2022-11-24T01:26:23.329Z,17.58
2022-11-24T01:28:54.929Z,18.98
2022-11-24T01:31:22.728Z,19.73
2022-11-24T01:33:49.872Z,19.90
2022-11-24T01:36:17.094Z,22.30
2022-11-24T01:38:44.114Z,19.60
2022-11-24T01:41:29.190Z,19.33
2022-11-24T01:43:56.801Z,19.52
2022-11-24T01:46:41.906Z,20.13
2022-11-24T01:49:08.708Z,19.50
2022-11-24T01:51:56.913Z,20.27
2022-11-24T01:54:29.483Z,19.73
2022-11-24T01:57:02.801Z,20.00
2022-11-24T01:59:29.958Z,18.45
2022-11-24T02:01:57.243Z,18.40
2022-11-24T02:04:28.533Z,20.00
2022-11-24T02:07:01.570Z,22.23
2022-11-24T02:09:59.762Z,19.65
2022-11-24T02:12:27.629Z,18.65
2022-11-24T02:14:55.884Z,21.35
2022-11-24T02:17:25.133Z,18.55
2022-11-24T02:20:01.432Z,18.92
2022-11-24T02:22:37.433Z,20.52
2022-11-24T02:25:31.066Z,18.13
2022-11-24T02:28:02.449Z,19.92
2022-11-24T02:30:29.328Z,19.17
2022-11-24T02:32:56.419Z,19.02
2022-11-24T02:35:23.437Z,18.65
2022-11-24T02:37:50.451Z,18.77
2022-11-24T02:40:24.955Z,13.15
2022-11-24T02:43:01.435Z,19.73
2022-11-24T02:45:29.321Z,18.52
2022-11-24T02:47:59.197Z,18.88
2022-11-24T02:50:26.138Z,21.55
2022-11-24T02:52:53.150Z,20.45
2022-11-24T02:55:20.272Z,17.75
2022-11-24T02:57:47.353Z,19.52
2022-11-24T03:00:14.849Z,20.23
2022-11-24T03:02:41.711Z,17.75
2022-11-24T03:05:08.905Z,18.90
2022-11-24T03:07:35.913Z,11.77
2022-11-24T03:10:03.645Z,19.15
2022-11-24T03:12:30.590Z,18.83
2022-11-24T03:14:57.405Z,18.67
2022-11-24T03:17:25.400Z,19.30
2022-11-24T03:19:52.173Z,19.85
2022-11-24T03:22:18.958Z,20.17
2022-11-24T03:24:45.997Z,22.00
2022-11-24T03:27:14.468Z,21.52
2022-11-24T03:29:41.750Z,19.08
2022-11-24T03:32:08.523Z,18.40
2022-11-24T03:34:35.628Z,23.05
2022-11-24T03:37:02.886Z,19.67
2022-11-24T03:39:29.812Z,13.27
2022-11-24T03:41:56.614Z,12.57
2022-11-24T03:44:23.408Z,20.52
2022-11-24T03:46:52.072Z,21.48
2022-11-24T03:49:18.914Z,20.65
2022-11-24T03:51:45.691Z,21.15
2022-11-24T03:54:12.615Z,20.00
2022-11-24T03:56:40.700Z,19.77
2022-11-24T03:59:07.559Z,20.40
2022-11-24T04:01:34.629Z,18.27
2022-11-24T04:04:01.492Z,20.73
2022-11-24T04:06:28.579Z,20.13
2022-11-24T04:08:55.447Z,19.85
2022-11-24T04:11:40.756Z,17.63
2022-11-24T04:14:13.220Z,21.50
2022-11-24T04:16:40.910Z,13.33
2022-11-24T04:19:07.922Z,20.75
2022-11-24T04:21:34.876Z,22.50
2022-11-24T04:24:01.894Z,20.73
2022-11-24T04:26:28.929Z,20.83
2022-11-24T04:28:55.695Z,18.45
2022-11-24T04:31:22.545Z,19.45
2022-11-24T04:33:49.386Z,20.30
2022-11-24T04:36:16.299Z,11.15
2022-11-24T04:39:23.162Z,19.42
2022-11-24T04:41:29.844Z,20.33
2022-11-24T04:43:56.662Z,20.40
2022-11-24T04:46:23.666Z,22.13
2022-11-24T04:48:50.575Z,21.25
2022-11-24T04:51:17.435Z,21.10
2022-11-24T04:53:44.294Z,22.20
2022-11-24T04:56:11.033Z,20.60
2022-11-24T04:58:38.249Z,21.45
2022-11-24T05:01:08.423Z,21.65
2022-11-24T05:03:36.511Z,18.95
2022-11-24T05:06:03.425Z,21.90
2022-11-24T05:08:30.295Z,22.00
2022-11-24T05:10:57.070Z,19.35
2022-11-24T05:13:23.909Z,23.27
2022-11-24T05:15:50.779Z,21.83
2022-11-24T05:18:17.902Z,19.35
2022-11-24T05:20:44.750Z,19.85
2022-11-24T05:23:11.903Z,22.15
2022-11-24T05:25:40.475Z,22.00
2022-11-24T05:28:10.470Z,11.55
2022-11-24T05:30:40.838Z,21.73
2022-11-24T05:33:11.530Z,21.83
2022-11-24T05:35:38.469Z,19.63
2022-11-24T05:38:05.750Z,12.02
2022-11-24T05:40:32.721Z,20.15
2022-11-24T05:42:59.681Z,21.13
2022-11-24T05:45:26.450Z,23.25
2022-11-24T05:47:53.738Z,21.60
2022-11-24T05:50:22.843Z,21.67
2022-11-24T05:52:50.054Z,23.85
2022-11-24T05:55:17.333Z,20.27
2022-11-24T05:57:44.175Z,14.43
2022-11-24T06:00:11.603Z,22.52
2022-11-24T06:02:42.223Z,22.73
2022-11-24T06:05:09.275Z,21.58
2022-11-24T06:07:38.714Z,12.52
2022-11-24T06:10:05.800Z,19.08
2022-11-24T06:12:33.055Z,14.75
2022-11-24T06:14:59.851Z,22.77
2022-11-24T06:17:28.814Z,21.65
2022-11-24T06:19:55.645Z,20.77
2022-11-24T06:22:22.600Z,22.33
2022-11-24T06:24:50.694Z,14.52
2022-11-24T06:27:18.023Z,24.05
2022-11-24T06:29:44.921Z,21.58
2022-11-24T06:32:11.672Z,23.90
2022-11-24T06:34:38.496Z,21.75
2022-11-24T06:37:05.427Z,20.48
2022-11-24T06:39:32.247Z,21.00
2022-11-24T06:41:59.073Z,20.48
2022-11-24T06:44:26.105Z,22.70
2022-11-24T06:46:53.266Z,21.98
2022-11-24T06:49:20.071Z,23.05
2022-11-24T06:51:46.841Z,21.20
2022-11-24T06:54:16.348Z,22.95
2022-11-24T06:56:44.650Z,12.35
2022-11-24T06:59:18.230Z,20.38
2022-11-24T07:04:12.676Z,24.15
2022-11-24T07:07:18.432Z,26.10
2022-11-24T07:09:45.256Z,20.77
2022-11-24T07:12:12.651Z,14.25
2022-11-24T07:14:39.679Z,24.95
2022-11-24T07:17:09.903Z,25.90
2022-11-24T07:19:36.746Z,28.40
2022-11-24T07:22:03.615Z,27.73
2022-11-24T07:24:30.375Z,15.30
2022-11-24T07:26:58.558Z,23.35
2022-11-24T07:29:25.550Z,23.25
2022-11-24T07:31:52.444Z,23.70
2022-11-24T07:34:19.241Z,23.15
2022-11-24T07:37:06.655Z,23.05
2022-11-24T07:39:33.453Z,25.42
2022-11-24T07:42:00.515Z,24.50
2022-11-24T07:44:27.764Z,23.05
2022-11-24T07:46:54.837Z,26.13
2022-11-24T07:49:21.952Z,29.45
2022-11-24T07:51:48.810Z,16.50
2022-11-24T07:54:15.619Z,25.90
2022-11-24T07:56:42.751Z,26.30
2022-11-24T07:59:09.549Z,30.50
2022-11-24T08:01:36.468Z,28.52
2022-11-24T08:04:03.436Z,32.28
2022-11-24T08:06:40.687Z,29.75
2022-11-24T08:09:10.083Z,15.38
2022-11-24T08:11:37.013Z,30.70
2022-11-24T08:14:04.354Z,31.25
2022-11-24T08:16:51.293Z,15.82
2022-11-24T08:19:18.175Z,27.17
2022-11-24T08:21:44.979Z,27.33
2022-11-24T08:24:13.889Z,29.67
2022-11-24T08:26:42.325Z,28.60
2022-11-24T08:29:09.853Z,16.73
2022-11-24T08:31:39.394Z,28.95
2022-11-24T08:34:07.736Z,30.42
2022-11-24T08:36:35.139Z,27.00
2022-11-24T08:39:02.420Z,25.70
2022-11-24T08:41:30.880Z,25.15
2022-11-24T08:43:58.271Z,23.20
2022-11-24T08:46:41.005Z,27.63
2022-11-24T08:49:08.310Z,27.15
2022-11-24T08:51:35.193Z,27.23
2022-11-24T08:54:02.755Z,24.55
2022-11-24T08:56:32.561Z,31.35
2022-11-24T08:59:00.168Z,28.10
2022-11-24T09:01:28.222Z,27.08
2022-11-24T09:03:55.678Z,28.17
2022-11-24T09:06:30.722Z,29.02
2022-11-24T09:08:59.364Z,32.00
2022-11-24T09:11:27.391Z,26.70
2022-11-24T09:13:55.334Z,31.95
2022-11-24T09:16:26.701Z,30.33
2022-11-24T09:19:02.341Z,27.17
2022-11-24T09:21:30.468Z,26.98
2022-11-24T09:23:57.429Z,24.05
2022-11-24T09:26:27.478Z,25.73
2022-11-24T09:28:55.666Z,26.40
2022-11-24T09:31:25.191Z,36.90
2022-11-24T09:33:52.686Z,23.95
2022-11-24T09:36:19.990Z,25.55
2022-11-24T09:38:47.134Z,25.33
2022-11-24T09:41:26.065Z,23.65
2022-11-24T09:43:58.749Z,24.08
2022-11-24T09:46:31.469Z,25.80
2022-11-24T09:49:00.944Z,23.63
2022-11-24T09:51:31.455Z,30.75
2022-11-24T09:54:22.031Z,25.42
2022-11-24T09:56:51.264Z,21.92
2022-11-24T09:59:23.580Z,28.25
2022-11-24T10:01:51.568Z,23.45
2022-11-24T10:04:43.037Z,27.75
2022-11-24T10:07:30.488Z,28.25
2022-11-24T10:10:24.206Z,28.48
2022-11-24T10:16:04.167Z,23.73
2022-11-24T10:18:42.215Z,24.75
2022-11-24T10:21:24.145Z,23.55
2022-11-24T10:24:22.186Z,20.92
2022-11-24T10:27:02.017Z,23.88
2022-11-24T10:29:34.241Z,19.88
2022-11-24T10:32:07.656Z,20.73
2022-11-24T10:34:39.570Z,22.23
2022-11-24T10:37:15.006Z,19.90
2022-11-24T10:40:03.948Z,19.80
2022-11-24T10:42:33.509Z,20.77
2022-11-24T10:45:11.778Z,21.13
2022-11-24T10:47:40.147Z,20.17
2022-11-24T10:50:10.151Z,21.45
2022-11-24T10:52:41.929Z,24.00
2022-11-24T10:55:09.745Z,21.50
2022-11-24T10:57:39.008Z,21.60
2022-11-24T11:00:30.857Z,20.15
2022-11-24T11:03:21.838Z,20.77
2022-11-24T11:06:21.155Z,18.38
2022-11-24T11:08:47.934Z,24.33
2022-11-24T11:11:22.337Z,17.23
2022-11-24T11:13:56.845Z,18.08
2022-11-24T11:16:39.944Z,18.80
2022-11-24T11:19:54.180Z,16.10
2022-11-24T11:22:29.882Z,15.88
2022-11-24T11:25:15.626Z,19.90
2022-11-24T11:27:42.494Z,18.25
2022-11-24T11:36:11.244Z,17.95
2022-11-24T11:38:40.493Z,19.98
2022-11-24T11:41:17.801Z,18.50
2022-11-24T11:43:47.083Z,16.75
2022-11-24T11:46:18.357Z,16.27
2022-11-24T11:48:47.179Z,16.23
2022-11-24T11:51:35.713Z,18.60
2022-11-24T11:54:05.621Z,16.77
2022-11-24T11:56:44.238Z,20.73
2022-11-24T11:59:35.207Z,19.52
2022-11-24T12:02:29.909Z,16.52
2022-11-24T12:05:29.262Z,17.20
2022-11-24T12:08:49.583Z,12.57
2022-11-24T12:11:27.912Z,14.68
2022-11-24T12:14:26.111Z,15.07
2022-11-24T12:17:28.753Z,13.48
2022-11-24T12:20:16.586Z,17.08
2022-11-24T12:22:52.723Z,15.90
2022-11-24T12:25:41.977Z,16.08
2022-11-24T12:28:35.058Z,16.13
2022-11-24T12:31:07.101Z,16.95
2022-11-24T12:33:56.502Z,17.58
2022-11-24T12:36:41.242Z,15.85
2022-11-24T12:39:14.199Z,17.70
2022-11-24T12:41:59.652Z,16.75
2022-11-24T12:44:29.551Z,14.90
2022-11-24T12:47:06.359Z,16.40
2022-11-24T12:49:40.438Z,17.48
2022-11-24T12:52:31.220Z,14.55
2022-11-24T12:54:58.799Z,13.40
2022-11-24T12:58:03.022Z,16.13
2022-11-24T13:00:54.471Z,15.60
2022-11-24T13:03:27.339Z,17.15
2022-11-24T13:06:01.355Z,17.40
2022-11-24T13:08:29.809Z,17.65
2022-11-24T13:11:22.483Z,15.63
2022-11-24T13:14:13.827Z,16.67
2022-11-24T13:19:49.325Z,15.48
2022-11-24T13:22:24.253Z,17.63
2022-11-24T13:25:25.813Z,18.02
2022-11-24T13:27:55.379Z,16.17
2022-11-24T13:30:34.417Z,13.50
2022-11-24T13:33:02.441Z,14.85
2022-11-24T13:35:30.082Z,14.30
2022-11-24T13:37:57.596Z,16.10
2022-11-24T13:40:26.403Z,16.05
2022-11-24T13:43:01.357Z,14.23
2022-11-24T13:45:41.569Z,16.70
2022-11-24T13:48:21.912Z,14.57
2022-11-24T13:50:53.271Z,17.60
2022-11-24T13:53:29.215Z,14.52
2022-11-24T13:56:12.574Z,14.73
2022-11-24T13:58:43.204Z,16.45
2022-11-24T14:01:26.694Z,13.32
2022-11-24T14:07:16.787Z,12.60
2022-11-24T14:09:52.126Z,13.18
2022-11-24T14:12:22.048Z,12.57
2022-11-24T14:14:57.018Z,14.95
2022-11-24T14:17:28.062Z,15.15
2022-11-24T14:19:56.592Z,12.52
2022-11-24T14:22:33.629Z,13.45
2022-11-24T14:25:02.195Z,12.27
2022-11-24T14:27:35.939Z,13.98
2022-11-24T14:30:18.501Z,15.68
2022-11-24T14:33:00.028Z,15.32
2022-11-24T14:35:32.195Z,13.05
2022-11-24T14:38:04.277Z,14.25
2022-11-24T14:40:50.071Z,15.07
2022-11-24T14:43:27.026Z,14.85
2022-11-24T14:45:56.638Z,16.65
2022-11-24T14:48:26.945Z,13.77
2022-11-24T14:51:04.285Z,15.30
2022-11-24T14:53:31.473Z,15.40
2022-11-24T14:56:28.009Z,14.05
2022-11-24T14:58:56.644Z,15.38
2022-11-24T15:01:33.822Z,15.98
2022-11-24T15:04:21.699Z,13.23
2022-11-24T15:07:25.682Z,15.30
2022-11-24T15:10:06.869Z,16.35
2022-11-24T15:12:37.618Z,16.42
2022-11-24T15:15:13.704Z,13.43
2022-11-24T15:18:27.159Z,15.32
2022-11-24T15:20:54.842Z,14.93
2022-11-24T15:23:28.974Z,12.15
2022-11-24T15:25:56.567Z,15.27
2022-11-24T15:28:26.009Z,14.38
2022-11-24T15:30:54.859Z,13.73
2022-11-24T15:33:23.128Z,14.13
2022-11-24T15:35:50.191Z,13.38
2022-11-24T15:38:17.536Z,15.77
2022-11-24T15:40:46.709Z,15.25
2022-11-24T15:43:34.725Z,11.30
2022-11-24T15:46:03.058Z,13.85
2022-11-24T15:48:31.633Z,11.60
2022-11-24T15:51:01.054Z,12.77
2022-11-24T15:53:36.135Z,14.07
2022-11-24T15:56:06.017Z,13.48
2022-11-24T15:58:32.836Z,12.38
2022-11-24T16:00:59.841Z,12.57
2022-11-24T16:03:51.732Z,12.40
2022-11-24T16:06:24.629Z,15.38
2022-11-24T16:08:52.794Z,16.23
2022-11-24T16:11:19.715Z,16.85
2022-11-24T16:13:52.023Z,16.65
2022-11-24T16:16:58.071Z,17.50
2022-11-24T16:19:25.138Z,14.60
2022-11-24T16:21:51.949Z,15.15
2022-11-24T16:24:18.952Z,14.98
2022-11-24T16:26:46.008Z,14.40
2022-11-24T16:29:12.988Z,12.43
2022-11-24T16:31:40.083Z,15.18
2022-11-24T16:34:06.914Z,14.70
2022-11-24T16:36:34.288Z,20.60
2022-11-24T16:39:01.359Z,21.90
2022-11-24T16:41:28.328Z,20.35
2022-11-24T16:43:55.213Z,19.25
2022-11-24T16:46:43.141Z,22.92
2022-11-24T16:49:09.996Z,23.85
2022-11-24T16:51:36.816Z,21.55
2022-11-24T16:54:03.931Z,25.33
2022-11-24T16:56:32.267Z,23.80
2022-11-24T16:58:59.227Z,22.02
2022-11-24T17:01:26.332Z,21.80
2022-11-24T17:03:53.344Z,21.98
2022-11-24T17:06:23.573Z,19.92
2022-11-24T17:08:56.163Z,19.00
2022-11-24T17:11:24.774Z,17.27
2022-11-24T17:13:52.314Z,16.90
2022-11-24T17:16:22.402Z,17.73
2022-11-24T17:18:50.408Z,18.73
2022-11-24T17:21:25.515Z,24.33
2022-11-24T17:24:15.459Z,23.55
2022-11-24T17:26:48.951Z,22.05
2022-11-24T17:29:16.244Z,27.60
2022-11-24T17:31:43.165Z,23.33
2022-11-24T17:34:11.478Z,24.98
2022-11-24T17:37:02.377Z,29.92
2022-11-24T17:39:29.162Z,31.83
2022-11-24T17:41:56.073Z,33.55
2022-11-24T17:44:23.129Z,27.10
2022-11-24T17:46:52.263Z,29.83
2022-11-24T17:49:21.096Z,25.30
2022-11-24T17:51:50.490Z,28.17
2022-11-24T17:54:45.238Z,28.35
2022-11-24T17:57:47.998Z,24.58
2022-11-24T18:00:15.754Z,25.48
2022-11-24T18:02:42.830Z,26.50
2022-11-24T18:05:11.712Z,28.45
2022-11-24T18:08:01.562Z,31.02
2022-11-24T18:10:28.632Z,29.50
2022-11-24T18:12:56.273Z,27.92
2022-11-24T18:15:23.544Z,31.85
2022-11-24T18:17:54.813Z,35.35
2022-11-24T18:20:21.736Z,40.15
2022-11-24T18:23:05.820Z,31.60
2022-11-24T18:25:33.364Z,30.38
2022-11-24T18:32:19.287Z,29.35
2022-11-24T18:34:46.149Z,34.50
2022-11-24T18:37:33.829Z,38.53
2022-11-24T18:40:00.702Z,33.80
2022-11-24T18:42:29.181Z,25.38
2022-11-24T18:44:57.122Z,28.80
2022-11-24T18:47:25.287Z,41.00
2022-11-24T18:49:52.166Z,31.63
2022-11-24T18:52:19.064Z,29.40
2022-11-24T18:54:45.941Z,29.45
2022-11-24T18:57:33.728Z,31.23
2022-11-24T19:00:00.702Z,28.90
2022-11-24T19:02:27.775Z,31.15
2022-11-24T19:04:55.110Z,28.00
2022-11-24T19:08:00.681Z,27.73
2022-11-24T19:10:27.719Z,28.00
2022-11-24T19:12:56.176Z,31.45
2022-11-24T19:15:23.073Z,30.90
2022-11-24T19:18:30.769Z,30.00
2022-11-24T19:20:58.261Z,35.25
2022-11-24T19:23:25.142Z,34.03
2022-11-24T19:25:52.020Z,28.25
2022-11-24T19:28:22.794Z,31.55
2022-11-24T19:30:50.474Z,30.73
2022-11-24T19:33:18.888Z,30.55
2022-11-24T19:35:46.837Z,31.25
2022-11-24T19:38:19.494Z,28.13
2022-11-24T19:40:46.396Z,32.97
2022-11-24T19:43:13.295Z,37.28
2022-11-24T19:45:44.305Z,36.05
2022-11-24T19:48:11.524Z,32.85
2022-11-24T19:50:38.367Z,31.15
2022-11-24T19:53:05.527Z,27.13
2022-11-24T19:55:32.579Z,30.85
2022-11-24T19:58:01.546Z,30.67
2022-11-24T20:00:31.944Z,35.72
2022-11-24T20:02:59.200Z,33.42
2022-11-24T20:05:25.999Z,32.35
2022-11-24T20:07:54.706Z,34.85
2022-11-24T20:10:21.603Z,40.60
2022-11-24T20:12:48.495Z,34.15
2022-11-24T20:15:15.403Z,38.45
2022-11-24T20:17:42.480Z,31.58
2022-11-24T20:20:09.731Z,26.98
2022-11-24T20:22:37.369Z,28.20
2022-11-24T20:25:04.563Z,33.85
2022-11-24T20:27:32.596Z,25.92
2022-11-24T20:29:59.457Z,37.95
2022-11-24T20:32:26.330Z,32.05
2022-11-24T20:34:53.223Z,29.88
2022-11-24T20:37:21.215Z,30.70
2022-11-24T20:39:48.152Z,39.95
2022-11-24T20:42:14.993Z,31.45
2022-11-24T20:44:41.872Z,27.45
2022-11-24T20:48:19.659Z,38.85
2022-11-24T20:50:51.105Z,32.88
2022-11-24T20:53:18.771Z,28.67
2022-11-24T20:55:45.597Z,31.77
2022-11-24T20:58:32.277Z,28.90
2022-11-24T21:01:11.054Z,28.23
2022-11-24T21:03:43.062Z,31.33
2022-11-24T21:06:14.817Z,29.55
2022-11-24T21:08:42.431Z,30.75
2022-11-24T21:11:11.539Z,33.38
2022-11-24T21:13:40.279Z,29.27
2022-11-24T21:16:30.417Z,28.67
2022-11-24T21:19:00.352Z,32.70
2022-11-24T21:21:34.633Z,32.20
2022-11-24T21:24:07.350Z,31.00
2022-11-24T21:26:37.600Z,32.90
2022-11-24T21:29:05.857Z,31.67
2022-11-24T21:31:38.396Z,34.78
2022-11-24T21:34:07.085Z,35.42
2022-11-24T21:37:13.006Z,29.15
2022-11-24T21:39:43.893Z,33.85
2022-11-24T21:42:10.855Z,30.63
2022-11-24T21:44:37.750Z,28.75
2022-11-24T21:47:05.033Z,34.28
2022-11-24T21:49:31.900Z,29.75
2022-11-24T21:51:58.937Z,30.50
2022-11-24T21:54:25.875Z,34.25
2022-11-24T21:57:11.756Z,33.67
2022-11-24T21:59:38.792Z,33.38
2022-11-24T22:02:08.856Z,33.22
2022-11-24T22:04:38.515Z,59.60
2022-11-24T22:07:05.383Z,29.83
2022-11-24T22:09:34.833Z,28.63
2022-11-24T22:12:01.822Z,29.67
2022-11-24T22:14:28.725Z,28.13
2022-11-24T22:16:57.635Z,31.45
2022-11-24T22:19:24.434Z,29.23
2022-11-24T22:21:51.310Z,30.67
2022-11-24T22:24:20.674Z,32.33
2022-11-24T22:27:33.117Z,32.63
2022-11-24T22:30:00.027Z,29.45
2022-11-24T22:32:27.049Z,28.52
2022-11-24T22:34:53.928Z,30.55
2022-11-24T22:37:58.582Z,35.80
2022-11-24T22:40:25.400Z,37.33
2022-11-24T22:42:52.213Z,37.05
2022-11-24T22:45:19.071Z,32.50
2022-11-24T22:47:46.680Z,35.28
2022-11-24T22:50:14.053Z,31.75
2022-11-24T22:52:41.151Z,32.55
2022-11-24T22:55:08.260Z,29.40
2022-11-24T22:57:37.150Z,36.08
2022-11-24T23:00:04.871Z,44.40
2022-11-24T23:02:31.780Z,32.83
2022-11-24T23:04:58.636Z,30.60
2022-11-24T23:07:26.762Z,38.05
2022-11-24T23:09:53.660Z,32.50
2022-11-24T23:12:22.805Z,29.33
2022-11-24T23:14:49.654Z,31.95
2022-11-24T23:17:20.226Z,31.08
2022-11-24T23:19:47.083Z,44.67
2022-11-24T23:22:13.863Z,29.08
2022-11-24T23:24:41.075Z,34.08
2022-11-24T23:27:08.215Z,38.70
2022-11-24T23:29:35.056Z,29.02
2022-11-24T23:32:01.940Z,29.35
2022-11-24T23:34:28.792Z,32.60
2022-11-24T23:36:55.871Z,30.05
2022-11-24T23:39:22.733Z,31.30
2022-11-24T23:41:49.578Z,36.47
2022-11-24T23:44:16.419Z,37.28
2022-11-24T23:46:44.489Z,39.83
2022-11-24T23:49:11.676Z,34.65
2022-11-24T23:51:41.952Z,36.30
2022-11-24T23:54:09.753Z,35.22
2022-11-24T23:57:15.078Z,33.55
2022-11-24T23:59:42.311Z,31.52
